Sibu Airport
WBGS : now visible

Aeroporto :











RITROVATECI SU...

 
LOGIN :

Iscrizione | Disclaimer

   EN    FR    IT 

 









Sommario :    VFR   VFR Marginale   IFR   IFR Intensivo   IFR Molto Intensivo
Visibilità : 
Base nubi : 
>= 8 km
>= 3000ft
5 / 8 km
1000 / 3000 ft
1500m / 5 km
500 / 1000 ft
800 / 1500m
200 / 500 ft
< 800m
< 200 ft
Simboli :   Temporali  Nebbia  Neve Forte  Precipitazioni Forti  Vento > 20 kt






- Altitudine del aeroporto : 122 ft
- Codice IATA : SBW


WBGS - Sibu

ULTIMO METAR :
  • 291400Z VRB02KT 9999 SCT018 BKN150 26/25 Q1009

METARs OBSOLETI :
  • 291300Z VRB03KT 9999 SCT018 BKN150 26/25 Q1009
  • 291200Z VRB02KT 9999 SCT018 BKN150 27/26 Q1008
  • 291100Z VRB02KT 9999 FEW018 BKN150 28/26 Q1007

TAF TAF WBGS
Valido dal 29 a 12 ore il 01 a 12 ore UTC


291100Z 2912/0112 03005KT 9999 SCT016



MetMap, La meteo Aeronautica in un colpo d'occhio ! - Copyright ORBIFLY Dicembre 2007 - Disclaimer

ORBIFLY MET'MAP TEAM :

Programmazione e sviluppo : Alexandra Zaïnal
Concezione : Baudouin d'Aumeries
Aiuto per la programmazione : Marc-Olivier Méhu
Supporto tecnico e logistico : Manuel Goepfert
Aiuto per la traduzione : Arnaldo La Scala

Contatto : metmap@orbifly.com




FONTI E CREDITI :

   NOAA       Earth
Advisory